createdAt,value
2022-12-20T00:01:36.583Z,3.23
2022-12-20T00:04:08.084Z,3.21
2022-12-20T00:06:36.242Z,3.12
2022-12-20T00:09:06.566Z,3.14
2022-12-20T00:11:34.153Z,3.24
2022-12-20T00:14:01.513Z,3.24
2022-12-20T00:16:29.840Z,3.27
2022-12-20T00:18:59.249Z,3.24
2022-12-20T00:21:27.585Z,3.30
2022-12-20T00:23:55.588Z,3.34
2022-12-20T00:26:26.350Z,3.32
2022-12-20T00:28:53.945Z,3.30
2022-12-20T00:31:22.887Z,3.29
2022-12-20T00:33:52.097Z,3.39
2022-12-20T00:36:19.875Z,3.25
2022-12-20T00:38:49.380Z,3.34
2022-12-20T00:41:21.372Z,3.27
2022-12-20T00:43:49.584Z,3.33
2022-12-20T00:46:18.186Z,3.25
2022-12-20T00:48:45.641Z,3.21
2022-12-20T00:51:16.780Z,3.23
2022-12-20T00:53:44.621Z,3.24
2022-12-20T00:56:12.343Z,3.34
2022-12-20T00:58:41.304Z,3.37
2022-12-20T01:01:21.782Z,3.32
2022-12-20T01:03:51.029Z,3.40
2022-12-20T01:06:19.212Z,3.43
2022-12-20T01:08:46.841Z,3.46
2022-12-20T01:11:16.816Z,3.41
2022-12-20T01:13:46.594Z,3.49
2022-12-20T01:16:28.968Z,3.46
2022-12-20T01:18:56.601Z,3.38
2022-12-20T01:21:26.180Z,3.48
2022-12-20T01:23:54.265Z,3.58
2022-12-20T01:26:23.315Z,3.49
2022-12-20T01:28:54.944Z,3.36
2022-12-20T01:31:22.540Z,3.55
2022-12-20T01:33:50.538Z,3.52
2022-12-20T01:36:21.349Z,3.36
2022-12-20T01:38:48.715Z,3.40
2022-12-20T01:41:18.674Z,3.30
2022-12-20T01:43:56.963Z,3.37
2022-12-20T01:46:26.910Z,3.42
2022-12-20T01:49:13.463Z,3.36
2022-12-20T01:51:43.563Z,3.34
2022-12-20T01:54:16.675Z,3.35
2022-12-20T01:56:47.388Z,3.39
2022-12-20T01:59:15.124Z,3.47
2022-12-20T02:01:43.230Z,3.30
2022-12-20T02:04:12.178Z,3.33
2022-12-20T02:06:39.694Z,3.35
2022-12-20T02:09:08.459Z,3.35
2022-12-20T02:11:35.941Z,3.24
2022-12-20T02:14:16.838Z,3.31
2022-12-20T02:16:58.429Z,3.39
2022-12-20T02:19:40.944Z,3.42
2022-12-20T02:22:16.662Z,3.26
2022-12-20T02:24:53.132Z,3.34
2022-12-20T02:27:27.610Z,3.35
2022-12-20T02:30:06.658Z,3.40
2022-12-20T02:32:43.231Z,3.21
2022-12-20T02:35:14.946Z,3.26
2022-12-20T02:37:54.796Z,3.32
2022-12-20T02:40:25.200Z,3.29
2022-12-20T02:42:56.330Z,3.32
2022-12-20T02:45:28.016Z,3.16
2022-12-20T02:48:01.268Z,3.18
2022-12-20T02:50:35.872Z,3.23
2022-12-20T02:53:05.236Z,3.32
2022-12-20T02:56:00.387Z,3.32
2022-12-20T02:58:42.984Z,3.27
2022-12-20T03:01:23.811Z,3.35
2022-12-20T03:03:51.717Z,3.20
2022-12-20T03:06:19.575Z,3.13
2022-12-20T03:08:47.338Z,3.24
2022-12-20T03:11:15.045Z,3.24
2022-12-20T03:13:42.699Z,3.30
2022-12-20T03:16:10.944Z,3.32
2022-12-20T03:18:39.093Z,3.20
2022-12-20T03:21:06.449Z,3.12
2022-12-20T03:23:34.184Z,3.19
2022-12-20T03:26:01.798Z,3.13
2022-12-20T03:28:30.445Z,3.18
2022-12-20T03:30:58.005Z,3.28
2022-12-20T03:33:25.810Z,3.24
2022-12-20T03:35:53.367Z,3.21
2022-12-20T03:38:21.464Z,3.14
2022-12-20T03:40:49.048Z,3.15
2022-12-20T03:43:17.043Z,3.34
2022-12-20T03:45:44.643Z,3.12
2022-12-20T03:48:12.294Z,3.04
2022-12-20T03:50:39.689Z,3.06
2022-12-20T03:53:07.688Z,3.16
2022-12-20T03:55:35.328Z,3.21
2022-12-20T03:58:02.793Z,3.17
2022-12-20T04:00:30.714Z,3.20
2022-12-20T04:02:59.050Z,3.20
2022-12-20T04:05:27.030Z,3.26
2022-12-20T04:07:54.434Z,3.29
2022-12-20T04:10:22.027Z,3.24
2022-12-20T04:12:49.416Z,3.28
2022-12-20T04:15:17.116Z,3.21
2022-12-20T04:17:45.471Z,3.25
2022-12-20T04:20:20.400Z,3.24
2022-12-20T04:22:50.038Z,3.31
2022-12-20T04:25:19.825Z,3.31
2022-12-20T04:27:47.790Z,3.29
2022-12-20T04:30:15.509Z,3.34
2022-12-20T04:32:43.203Z,3.24
2022-12-20T04:35:11.301Z,3.33
2022-12-20T04:37:39.525Z,3.35
2022-12-20T04:40:07.728Z,3.37
2022-12-20T04:42:36.374Z,3.21
2022-12-20T04:45:04.389Z,3.17
2022-12-20T04:47:32.099Z,3.19
2022-12-20T04:49:59.562Z,3.27
2022-12-20T04:52:48.018Z,3.34
2022-12-20T04:55:16.140Z,3.35
2022-12-20T04:57:43.886Z,3.59
2022-12-20T05:00:11.987Z,3.33
2022-12-20T05:02:39.925Z,3.46
2022-12-20T05:05:08.599Z,3.43
2022-12-20T05:07:36.755Z,3.26
2022-12-20T05:10:04.649Z,3.31
2022-12-20T05:12:32.419Z,3.17
2022-12-20T05:15:00.568Z,3.19
2022-12-20T05:17:27.913Z,3.24
2022-12-20T05:19:55.515Z,3.24
2022-12-20T05:22:41.466Z,3.22
2022-12-20T05:25:31.751Z,3.32
2022-12-20T05:27:59.848Z,3.26
2022-12-20T05:30:27.769Z,3.25
2022-12-20T05:32:55.552Z,3.16
2022-12-20T05:35:23.007Z,3.26
2022-12-20T05:37:52.821Z,3.29
2022-12-20T05:40:20.732Z,3.50
2022-12-20T05:42:48.104Z,3.29
2022-12-20T05:45:15.933Z,3.36
2022-12-20T05:47:44.938Z,3.20
2022-12-20T05:50:18.535Z,3.23
2022-12-20T05:53:07.454Z,3.10
2022-12-20T05:55:40.528Z,3.05
2022-12-20T05:58:08.388Z,3.08
2022-12-20T06:00:37.373Z,3.14
2022-12-20T06:03:05.949Z,3.14
2022-12-20T06:05:38.813Z,3.07
2022-12-20T06:08:07.255Z,3.01
2022-12-20T06:10:35.134Z,3.04
2022-12-20T06:13:03.847Z,3.04
2022-12-20T06:15:32.100Z,3.11
2022-12-20T06:18:00.591Z,3.07
2022-12-20T06:20:28.628Z,3.01
2022-12-20T06:22:58.126Z,3.05
2022-12-20T06:25:28.430Z,3.06
2022-12-20T06:27:56.477Z,3.11
2022-12-20T06:30:30.238Z,3.18
2022-12-20T06:33:04.245Z,2.99
2022-12-20T06:35:32.231Z,3.06
2022-12-20T06:37:59.694Z,3.12
2022-12-20T06:40:27.847Z,3.11
2022-12-20T06:42:56.558Z,3.10
2022-12-20T06:45:24.131Z,3.06
2022-12-20T06:47:52.765Z,3.10
2022-12-20T06:50:20.596Z,3.12
2022-12-20T06:52:47.940Z,3.12
2022-12-20T06:55:15.681Z,3.23
2022-12-20T06:57:43.120Z,3.13
2022-12-20T07:00:12.794Z,3.11
2022-12-20T07:02:40.649Z,3.15
2022-12-20T07:05:08.253Z,3.21
2022-12-20T07:07:42.176Z,3.19
2022-12-20T07:10:12.391Z,3.21
2022-12-20T07:12:45.474Z,3.25
2022-12-20T07:15:15.756Z,3.21
2022-12-20T07:17:43.212Z,3.28
2022-12-20T07:20:13.890Z,3.27
2022-12-20T07:22:42.264Z,3.44
2022-12-20T07:25:11.335Z,3.42
2022-12-20T07:27:38.734Z,3.38
2022-12-20T07:30:06.863Z,3.46
2022-12-20T07:32:34.285Z,3.32
2022-12-20T07:35:01.716Z,3.41
2022-12-20T07:37:29.951Z,3.55
2022-12-20T07:39:57.325Z,3.40
2022-12-20T07:42:28.990Z,3.53
2022-12-20T07:45:03.661Z,3.40
2022-12-20T07:47:31.285Z,3.38
2022-12-20T07:49:58.685Z,3.64
2022-12-20T07:52:29.220Z,3.77
2022-12-20T07:55:01.981Z,3.67
2022-12-20T07:57:38.114Z,3.74
2022-12-20T08:00:06.279Z,3.92
2022-12-20T08:02:44.154Z,3.80
2022-12-20T08:05:12.552Z,3.92
2022-12-20T08:07:41.747Z,3.99
2022-12-20T08:10:11.263Z,3.78
2022-12-20T08:12:39.256Z,3.89
2022-12-20T08:15:07.525Z,3.84
2022-12-20T08:17:35.030Z,3.82
2022-12-20T08:20:03.490Z,3.82
2022-12-20T08:22:30.855Z,3.83
2022-12-20T08:24:58.236Z,3.66
2022-12-20T08:27:25.904Z,3.94
2022-12-20T08:29:53.293Z,4.00
2022-12-20T08:32:20.635Z,3.80
2022-12-20T08:34:48.418Z,4.10
2022-12-20T08:37:19.610Z,4.07
2022-12-20T08:39:46.982Z,4.19
2022-12-20T08:42:14.707Z,4.27
2022-12-20T08:44:42.084Z,4.16
2022-12-20T08:47:10.331Z,4.17
2022-12-20T08:49:42.419Z,4.10
2022-12-20T08:52:13.095Z,4.00
2022-12-20T08:54:40.766Z,4.21
2022-12-20T08:57:08.468Z,4.19
2022-12-20T08:59:35.866Z,4.21
2022-12-20T09:02:03.620Z,4.19
2022-12-20T09:04:31.218Z,4.24
2022-12-20T09:06:58.557Z,4.38
2022-12-20T09:09:26.176Z,4.47
2022-12-20T09:11:53.537Z,4.54
2022-12-20T09:14:20.878Z,4.56
2022-12-20T09:16:49.159Z,4.49
2022-12-20T09:19:16.507Z,4.63
2022-12-20T09:21:44.281Z,4.64
2022-12-20T09:24:11.956Z,4.68
2022-12-20T09:26:40.806Z,4.71
2022-12-20T09:29:08.262Z,4.28
2022-12-20T09:31:37.072Z,4.50
2022-12-20T09:34:04.529Z,4.48
2022-12-20T09:36:32.095Z,4.46
2022-12-20T09:38:59.841Z,4.43
2022-12-20T09:41:38.584Z,4.46
2022-12-20T09:44:33.841Z,4.49
2022-12-20T09:47:10.475Z,4.54
2022-12-20T09:49:42.070Z,4.59
2022-12-20T09:52:46.390Z,4.65
2022-12-20T09:55:32.763Z,4.98
2022-12-20T09:58:27.807Z,5.09
2022-12-20T10:00:55.768Z,5.21
2022-12-20T10:03:30.083Z,5.14
2022-12-20T10:06:04.649Z,5.22
2022-12-20T10:08:50.644Z,5.02
2022-12-20T10:11:36.627Z,5.11
2022-12-20T10:14:45.226Z,4.93
2022-12-20T10:17:36.156Z,5.24
2022-12-20T10:20:19.301Z,5.31
2022-12-20T10:22:53.323Z,5.32
2022-12-20T10:25:30.297Z,5.25
2022-12-20T10:27:58.581Z,5.46
2022-12-20T10:30:27.433Z,5.38
2022-12-20T10:32:56.931Z,5.28
2022-12-20T10:35:46.369Z,5.35
2022-12-20T10:38:17.542Z,5.66
2022-12-20T10:43:51.777Z,5.50
2022-12-20T10:46:19.474Z,5.61
2022-12-20T10:48:49.050Z,5.91
2022-12-20T10:51:20.168Z,5.91
2022-12-20T10:53:59.746Z,5.78
2022-12-20T10:56:32.592Z,5.68
2022-12-20T10:59:30.620Z,5.75
2022-12-20T11:01:58.391Z,5.82
2022-12-20T11:04:28.899Z,6.12
2022-12-20T11:06:57.197Z,5.99
2022-12-20T11:09:37.688Z,5.78
2022-12-20T11:12:16.553Z,5.76
2022-12-20T11:14:45.988Z,5.64
2022-12-20T11:17:29.786Z,5.82
2022-12-20T11:20:26.546Z,5.64
2022-12-20T11:23:19.173Z,5.59
2022-12-20T11:25:56.536Z,5.54
2022-12-20T11:28:39.163Z,5.67
2022-12-20T11:31:24.811Z,5.92
2022-12-20T11:33:55.246Z,5.67
2022-12-20T11:36:50.810Z,5.76
2022-12-20T11:39:39.234Z,5.73
2022-12-20T11:42:16.842Z,5.78
2022-12-20T11:45:03.295Z,6.00
2022-12-20T11:47:48.704Z,6.01
2022-12-20T11:50:36.856Z,6.18
2022-12-20T11:53:31.949Z,6.18
2022-12-20T11:56:02.803Z,6.36
2022-12-20T11:58:52.780Z,6.51
2022-12-20T12:01:25.555Z,6.59
2022-12-20T12:04:13.588Z,6.48
2022-12-20T12:06:46.385Z,6.54
2022-12-20T12:09:17.136Z,6.41
2022-12-20T12:12:08.742Z,6.25
2022-12-20T12:14:52.361Z,6.42
2022-12-20T12:17:44.359Z,6.27
2022-12-20T12:20:28.424Z,6.35
2022-12-20T12:23:02.197Z,6.13
2022-12-20T12:25:29.904Z,6.25
2022-12-20T12:27:57.298Z,6.22
2022-12-20T12:30:24.734Z,6.39
2022-12-20T12:32:56.938Z,6.46
2022-12-20T12:35:59.881Z,6.35
2022-12-20T12:38:55.650Z,6.45
2022-12-20T12:42:04.859Z,6.38
2022-12-20T12:44:38.941Z,6.31
2022-12-20T12:47:12.758Z,6.40
2022-12-20T12:49:40.893Z,6.37
2022-12-20T12:52:40.287Z,6.32
2022-12-20T12:55:35.778Z,6.29
2022-12-20T12:58:24.714Z,6.41
2022-12-20T13:00:52.384Z,6.21
2022-12-20T13:03:41.560Z,6.24
2022-12-20T13:06:28.373Z,6.11
2022-12-20T13:08:55.763Z,5.96
2022-12-20T13:11:34.319Z,6.04
2022-12-20T13:14:27.419Z,6.00
2022-12-20T13:17:25.561Z,6.17
2022-12-20T13:19:55.384Z,6.32
2022-12-20T13:22:26.838Z,6.23
2022-12-20T13:24:58.044Z,6.15
2022-12-20T13:27:31.028Z,6.10
2022-12-20T13:30:00.186Z,5.96
2022-12-20T13:32:46.622Z,5.98
2022-12-20T13:35:25.978Z,6.14
2022-12-20T13:38:05.726Z,6.32
2022-12-20T13:40:43.921Z,6.09
2022-12-20T13:43:21.781Z,6.00
2022-12-20T13:46:04.542Z,6.05
2022-12-20T13:48:38.314Z,6.02
2022-12-20T13:51:08.101Z,6.22
2022-12-20T13:53:36.090Z,6.21
2022-12-20T13:56:42.366Z,6.32
2022-12-20T13:59:27.839Z,6.36
2022-12-20T14:01:59.092Z,6.24
2022-12-20T14:04:28.603Z,6.20
2022-12-20T14:06:58.643Z,6.11
2022-12-20T14:09:28.620Z,6.06
2022-12-20T14:12:21.179Z,6.15
2022-12-20T14:14:53.181Z,6.09
2022-12-20T14:17:25.897Z,6.14
2022-12-20T14:20:07.176Z,6.12
2022-12-20T14:22:36.204Z,6.04
2022-12-20T14:25:05.645Z,6.16
2022-12-20T14:27:36.010Z,6.10
2022-12-20T14:30:05.769Z,5.94
2022-12-20T14:32:33.158Z,6.00
2022-12-20T14:35:00.619Z,6.00
2022-12-20T14:37:31.803Z,6.06
2022-12-20T14:40:04.242Z,6.07
2022-12-20T14:42:37.013Z,5.97
2022-12-20T14:45:17.371Z,6.05
2022-12-20T14:47:55.370Z,6.03
2022-12-20T14:50:34.525Z,6.09
2022-12-20T14:53:02.930Z,6.06
2022-12-20T14:55:32.530Z,5.97
2022-12-20T14:57:59.979Z,6.01
2022-12-20T15:00:33.409Z,6.01
2022-12-20T15:03:15.655Z,5.94
2022-12-20T15:05:45.477Z,5.88
2022-12-20T15:08:17.269Z,5.93
2022-12-20T15:11:10.787Z,5.95
2022-12-20T15:13:43.192Z,5.91
2022-12-20T15:16:25.830Z,5.81
2022-12-20T15:18:56.032Z,5.87
2022-12-20T15:21:31.248Z,5.83
2022-12-20T15:24:00.971Z,5.95
2022-12-20T15:26:29.519Z,5.84
2022-12-20T15:28:57.641Z,5.89
2022-12-20T15:31:33.294Z,5.91
2022-12-20T15:34:04.851Z,5.89
2022-12-20T15:36:33.948Z,5.95
2022-12-20T15:39:17.147Z,5.96
2022-12-20T15:41:48.837Z,5.87
2022-12-20T15:44:19.382Z,5.85
2022-12-20T15:46:47.194Z,5.88
2022-12-20T15:49:28.141Z,5.84
2022-12-20T15:51:56.161Z,5.65
2022-12-20T15:54:27.565Z,5.66
2022-12-20T15:57:00.034Z,5.57
2022-12-20T16:02:29.438Z,5.37
2022-12-20T16:04:58.700Z,5.20
2022-12-20T16:07:27.296Z,5.44
2022-12-20T16:09:54.738Z,5.37
2022-12-20T16:12:32.725Z,5.32
2022-12-20T16:15:00.161Z,5.50
2022-12-20T16:17:27.878Z,5.36
2022-12-20T16:19:55.565Z,5.27
2022-12-20T16:22:24.017Z,5.22
2022-12-20T16:24:52.135Z,5.26
2022-12-20T16:27:20.399Z,5.53
2022-12-20T16:29:47.927Z,5.52
2022-12-20T16:32:17.632Z,5.37
2022-12-20T16:34:45.682Z,5.33
2022-12-20T16:37:13.340Z,5.21
2022-12-20T16:39:41.720Z,5.22
2022-12-20T16:42:14.869Z,5.18
2022-12-20T16:44:45.076Z,5.26
2022-12-20T16:47:13.991Z,5.36
2022-12-20T16:49:51.210Z,5.20
2022-12-20T16:52:22.182Z,5.27
2022-12-20T16:54:50.599Z,5.18
2022-12-20T16:57:18.354Z,5.36
2022-12-20T16:59:46.190Z,5.37
2022-12-20T17:02:26.626Z,5.43
2022-12-20T17:04:54.991Z,5.40
2022-12-20T17:07:22.601Z,5.29
2022-12-20T17:12:35.655Z,5.41
2022-12-20T17:15:04.799Z,5.48
2022-12-20T17:17:32.163Z,5.41
2022-12-20T17:20:00.062Z,5.47
2022-12-20T17:22:27.500Z,5.55
2022-12-20T17:24:54.932Z,5.52
2022-12-20T17:27:22.682Z,5.45
2022-12-20T17:29:50.749Z,5.40
2022-12-20T17:32:21.137Z,5.37
2022-12-20T17:34:49.042Z,5.44
2022-12-20T17:37:17.518Z,5.44
2022-12-20T17:39:45.031Z,5.53
2022-12-20T17:42:13.745Z,5.49
2022-12-20T17:44:41.212Z,5.45
2022-12-20T17:47:08.762Z,5.41
2022-12-20T17:49:36.624Z,5.35
2022-12-20T17:52:04.491Z,5.33
2022-12-20T17:54:39.115Z,5.38
2022-12-20T17:57:13.469Z,5.40
2022-12-20T17:59:41.399Z,5.37
2022-12-20T18:02:19.495Z,5.31
2022-12-20T18:04:47.461Z,5.39
2022-12-20T18:07:15.003Z,5.33
2022-12-20T18:09:42.477Z,5.37
2022-12-20T18:12:10.851Z,5.27
2022-12-20T18:14:38.293Z,5.33
2022-12-20T18:17:05.710Z,5.13
2022-12-20T18:19:33.457Z,5.00
2022-12-20T18:22:01.541Z,4.83
2022-12-20T18:24:28.963Z,4.96
2022-12-20T18:26:56.676Z,4.99
2022-12-20T18:29:24.027Z,5.05
2022-12-20T18:31:51.393Z,5.01
2022-12-20T18:34:19.068Z,4.95
2022-12-20T18:36:46.518Z,4.82
2022-12-20T18:39:13.970Z,4.88
2022-12-20T18:41:43.050Z,4.79
2022-12-20T18:44:11.650Z,4.90
2022-12-20T18:46:39.496Z,4.87
2022-12-20T18:49:07.213Z,4.89
2022-12-20T18:51:36.781Z,4.87
2022-12-20T18:54:06.026Z,4.93
2022-12-20T18:56:35.908Z,4.90
2022-12-20T18:59:11.448Z,4.93
2022-12-20T19:01:40.730Z,4.95
2022-12-20T19:04:08.867Z,4.90
2022-12-20T19:06:36.935Z,4.98
2022-12-20T19:09:08.020Z,4.90
2022-12-20T19:11:35.606Z,4.97
2022-12-20T19:14:03.563Z,4.91
2022-12-20T19:16:32.812Z,4.94
2022-12-20T19:19:01.915Z,4.92
2022-12-20T19:21:33.882Z,5.01
2022-12-20T19:24:06.849Z,4.97
2022-12-20T19:26:36.399Z,5.02
2022-12-20T19:29:05.140Z,5.14
2022-12-20T19:31:34.943Z,4.88
2022-12-20T19:34:05.246Z,4.92
2022-12-20T19:36:44.114Z,4.87
2022-12-20T19:39:14.728Z,4.99
2022-12-20T19:41:42.713Z,5.02
2022-12-20T19:44:10.225Z,5.00
2022-12-20T19:46:38.206Z,5.02
2022-12-20T19:49:06.288Z,4.88
2022-12-20T19:51:33.836Z,5.01
2022-12-20T19:54:01.381Z,4.96
2022-12-20T19:56:31.779Z,4.94
2022-12-20T19:58:59.601Z,5.01
2022-12-20T20:01:28.097Z,5.18
2022-12-20T20:03:58.125Z,5.07
2022-12-20T20:06:26.727Z,4.99
2022-12-20T20:08:57.477Z,5.01
2022-12-20T20:11:25.752Z,5.18
2022-12-20T20:13:53.199Z,4.91
2022-12-20T20:16:22.759Z,4.98
2022-12-20T20:18:51.226Z,4.96
2022-12-20T20:21:22.469Z,4.98
2022-12-20T20:23:51.357Z,4.97
2022-12-20T20:26:22.549Z,5.03
2022-12-20T20:28:50.457Z,5.02
2022-12-20T20:31:19.376Z,5.10
2022-12-20T20:33:47.536Z,5.11
2022-12-20T20:36:17.582Z,5.12
2022-12-20T20:38:45.607Z,5.09
2022-12-20T20:41:14.292Z,5.13
2022-12-20T20:43:42.348Z,5.13
2022-12-20T20:46:12.826Z,5.19
2022-12-20T20:48:40.928Z,5.15
2022-12-20T20:51:08.827Z,5.15
2022-12-20T20:53:36.510Z,5.14
2022-12-20T20:56:05.385Z,5.17
2022-12-20T20:58:33.674Z,5.23
2022-12-20T21:01:03.118Z,5.24
2022-12-20T21:03:31.406Z,5.10
2022-12-20T21:08:46.763Z,5.12
2022-12-20T21:11:14.376Z,5.11
2022-12-20T21:13:41.870Z,5.10
2022-12-20T21:16:12.221Z,5.11
2022-12-20T21:18:39.949Z,5.25
2022-12-20T21:21:09.314Z,5.19
2022-12-20T21:23:37.432Z,5.19
2022-12-20T21:26:05.206Z,5.19
2022-12-20T21:28:32.713Z,5.22
2022-12-20T21:31:01.838Z,5.23
2022-12-20T21:33:29.316Z,5.17
2022-12-20T21:36:00.602Z,5.12
2022-12-20T21:38:28.681Z,5.25
2022-12-20T21:41:08.108Z,5.13
2022-12-20T21:43:35.791Z,5.02
2022-12-20T21:46:03.318Z,4.98
2022-12-20T21:48:31.087Z,5.05
2022-12-20T21:51:02.802Z,5.12
2022-12-20T21:53:30.828Z,5.01
2022-12-20T21:55:59.923Z,4.97
2022-12-20T21:58:29.718Z,5.03
2022-12-20T22:00:57.697Z,4.91
2022-12-20T22:03:26.186Z,4.89
2022-12-20T22:05:55.696Z,4.91
2022-12-20T22:08:24.703Z,5.01
2022-12-20T22:11:02.314Z,5.03
2022-12-20T22:13:35.579Z,5.06
2022-12-20T22:16:10.421Z,4.96
2022-12-20T22:18:38.467Z,4.97
2022-12-20T22:21:07.600Z,5.00
2022-12-20T22:23:35.319Z,5.04
2022-12-20T22:26:04.120Z,5.10
2022-12-20T22:28:31.472Z,4.93
2022-12-20T22:30:59.150Z,4.79
2022-12-20T22:33:26.816Z,4.85
2022-12-20T22:35:54.234Z,4.96
2022-12-20T22:38:21.901Z,4.92
2022-12-20T22:40:49.299Z,4.93
2022-12-20T22:43:16.694Z,4.97
2022-12-20T22:45:44.432Z,4.97
2022-12-20T22:48:11.845Z,5.02
2022-12-20T22:50:39.210Z,5.01
2022-12-20T22:53:06.980Z,4.95
2022-12-20T22:55:34.710Z,4.89
2022-12-20T22:58:02.084Z,4.83
2022-12-20T23:00:29.724Z,4.88
2022-12-20T23:02:57.286Z,4.82
2022-12-20T23:05:24.830Z,4.91
2022-12-20T23:07:52.464Z,4.97
2022-12-20T23:10:38.636Z,4.84
2022-12-20T23:13:24.520Z,4.75
2022-12-20T23:15:51.898Z,4.93
2022-12-20T23:18:19.557Z,5.02
2022-12-20T23:21:11.924Z,4.93
2022-12-20T23:23:39.653Z,4.96
2022-12-20T23:26:16.199Z,5.11
2022-12-20T23:28:44.238Z,5.11
2022-12-20T23:31:11.686Z,5.08
2022-12-20T23:33:39.296Z,5.16
2022-12-20T23:36:07.439Z,5.18
2022-12-20T23:38:36.315Z,5.13
2022-12-20T23:41:11.334Z,5.28
2022-12-20T23:43:39.536Z,5.23
2022-12-20T23:46:11.844Z,5.08
2022-12-20T23:48:39.947Z,5.23
2022-12-20T23:51:07.607Z,5.13
2022-12-20T23:53:35.087Z,5.15
2022-12-20T23:56:10.403Z,5.09
2022-12-20T23:58:38.301Z,5.13
